Etusivu
METAR-TAF:

METAR-TAF

Lentoasemat :

Shanghai Pudongin kansainvälinen lentoasema

Shanghai-Pudong, Kiina

Leveyspiiri: 31-07N, Pituuspiiri: 121-46E, korkeus merenpinnasta: 4 m

Tämänhetkinen sää

Tämä raportti tehtiin 21 minuuttia sitten, kello 19.30 UTC
Tuuli 14 kn pohjoisesta
Lämpötila 12°C
Kosteus 76%
Ilmanpaine 1025 hPa
Näkyvyys 10 km tai enemmän
ei pilviä alle 1500 m:ssä eikä cumulonimbus-pilviä

METAR: ZSPD 211930Z 35007MPS CAVOK 12/08 Q1025 NOSIG

Aika: 03:51 (19:51 UTC)

Sääennuste

Tämä raportti tehtiin 4 tuntia ja 27 minuuttia sitten, kello 15.24 UTC
Ennuste voimassa 21. päivästä klo 18 UTC - 22. päivään klo 18 UTC
Tuuli 14 kn pohjoisen/luoteesta
Näkyvyys: 6000 m
Hajonneita pilviä 1600 ft:n korkeudessa
Tulossa
22. päivästä klo 10 UTC - 22. päivään klo 12 UTC
Tuuli 8 kn koillisesta

TAF: ZSPD 211524Z 2118/2218 34007MPS 6000 BKN016 TX15/2206Z TN09/2121Z BECMG 2210/2212 04004MPS

Säähavainnot ja -ennusteet yli 4000 lentoasemalta (METAR- ja TAF-raportit).

Käytössä olevat sääasemat on merkitty karttaan keltaisilla ja punaisilla pisteillä.

Aseta hiiri pisteen päälle nähdäksesi sääaseman nimen.

Klikkaa sitten nähdäksesi säähavainnot ja -ennusteet.

Kartan vaihtaminen: klikkaa mustalla rastilla varustettuja vihreitä pisteitä, niin voit zoomata sisään; viivalla varustettua vihreää pistettä, niin voit zoomata ulos tai vihreitä nuolia, niin pääset viereisille kartoille.


METAR-TAF: